Country
Station

 

Weather  for  Raleigh/Durham, Raleigh-Durham International Airport  -  United States    United States

  
28 °C (82 °F)
    
 
 

Current METAR for Raleigh/Durham, Raleigh-Durham International Airport is :

KRDU 191451Z VRB03KT 10SM CLR 28/19 A2999 RMK AO2 SLP152 T02780189 51010

 

This is a report for Raleigh/Durham, Raleigh-Durham International Airport - United States.
 
The report was made 48 minutes ago, at 14:51 UTC .
The wind was blowing at a speed of 1.5 meters per second (3.5 miles per hour) from variable directions.
 
The temperature was 28 °C (82 °F), with a dew-point at 19 °C (66 °F).
The temperature felt like 29 °C (84 °F).
 
The atmospheric pressure was 1016 hPa (29.99 inHg).
The relative humidity was 58.1%.
 
The sky was clear.
 
The overall visibility was 16.1 kilometers (10.0 miles).
 

 
 
 
 

Country :   A   B   C   D   E   F   G   H   I   J   K   L   M   N   O   P   Q   R   S   T   U   V   W   Y   Z

 

Site Info  |  Disclaimer  |  Credits  |  Privacy
Contact us  |  Add to favorites
© 2013-2018 METARs - All rights reserved